sensor_id;sensor_type;location;lat;lon;timestamp;pressure;altitude;pressure_sealevel;temperature;humidity
23574;BME280;11965;53.640;10.050;2022-09-29T00:00:33;99786.97;;;7.60;93.76
23574;BME280;11965;53.640;10.050;2022-09-29T00:02:59;99790.56;;;7.60;94.60
23574;BME280;11965;53.640;10.050;2022-09-29T00:05:25;99789.53;;;7.61;93.47
23574;BME280;11965;53.640;10.050;2022-09-29T00:07:50;99799.06;;;7.59;94.31
23574;BME280;11965;53.640;10.050;2022-09-29T00:10:16;99800.56;;;7.61;93.32
23574;BME280;11965;53.640;10.050;2022-09-29T00:12:41;99792.88;;;7.57;93.47
23574;BME280;11965;53.640;10.050;2022-09-29T00:15:07;99787.13;;;7.51;93.36
23574;BME280;11965;53.640;10.050;2022-09-29T00:17:32;99796.22;;;7.52;93.55
23574;BME280;11965;53.640;10.050;2022-09-29T00:19:58;99792.19;;;7.48;94.07
23574;BME280;11965;53.640;10.050;2022-09-29T00:22:23;99793.25;;;7.47;91.85
23574;BME280;11965;53.640;10.050;2022-09-29T00:24:48;99792.59;;;7.45;92.00
23574;BME280;11965;53.640;10.050;2022-09-29T00:27:15;99790.25;;;7.42;91.78
23574;BME280;11965;53.640;10.050;2022-09-29T00:29:40;99792.75;;;7.37;92.51
23574;BME280;11965;53.640;10.050;2022-09-29T00:32:06;99791.69;;;7.38;93.35
23574;BME280;11965;53.640;10.050;2022-09-29T00:34:31;99797.59;;;7.35;92.40
23574;BME280;11965;53.640;10.050;2022-09-29T00:36:56;99794.59;;;7.29;93.49
23574;BME280;11965;53.640;10.050;2022-09-29T00:39:22;99793.28;;;7.25;93.10
23574;BME280;11965;53.640;10.050;2022-09-29T00:41:47;99793.41;;;7.17;94.46
23574;BME280;11965;53.640;10.050;2022-09-29T00:46:42;99783.44;;;7.16;93.42
23574;BME280;11965;53.640;10.050;2022-09-29T00:52:12;99789.75;;;7.10;92.31
23574;BME280;11965;53.640;10.050;2022-09-29T00:54:48;99791.19;;;7.06;93.42
23574;BME280;11965;53.640;10.050;2022-09-29T00:57:18;99791.19;;;7.06;94.03
23574;BME280;11965;53.640;10.050;2022-09-29T00:59:50;99790.09;;;7.00;93.78
23574;BME280;11965;53.640;10.050;2022-09-29T01:02:18;99795.28;;;7.10;93.09
23574;BME280;11965;53.640;10.050;2022-09-29T01:04:46;99800.06;;;7.01;93.84
23574;BME280;11965;53.640;10.050;2022-09-29T01:07:12;99799.16;;;6.94;93.76
23574;BME280;11965;53.640;10.050;2022-09-29T01:09:39;99792.97;;;6.92;93.24
23574;BME280;11965;53.640;10.050;2022-09-29T01:12:05;99793.91;;;6.99;94.54
23574;BME280;11965;53.640;10.050;2022-09-29T01:14:32;99791.31;;;6.98;94.09
23574;BME280;11965;53.640;10.050;2022-09-29T01:16:59;99793.50;;;7.02;93.74
23574;BME280;11965;53.640;10.050;2022-09-29T01:25:08;99792.19;;;6.98;92.78
23574;BME280;11965;53.640;10.050;2022-09-29T01:31:29;99787.00;;;6.89;92.92
23574;BME280;11965;53.640;10.050;2022-09-29T01:34:08;99786.63;;;6.92;92.79
23574;BME280;11965;53.640;10.050;2022-09-29T01:36:52;99786.34;;;6.86;92.97
23574;BME280;11965;53.640;10.050;2022-09-29T01:39:40;99787.16;;;6.80;93.06
23574;BME280;11965;53.640;10.050;2022-09-29T01:42:13;99790.66;;;6.74;92.84
23574;BME280;11965;53.640;10.050;2022-09-29T01:47:11;99788.78;;;6.75;92.98
23574;BME280;11965;53.640;10.050;2022-09-29T01:49:44;99794.69;;;6.72;93.94
23574;BME280;11965;53.640;10.050;2022-09-29T01:52:14;99788.66;;;6.83;92.85
23574;BME280;11965;53.640;10.050;2022-09-29T01:54:49;99796.72;;;6.84;92.06
23574;BME280;11965;53.640;10.050;2022-09-29T01:57:22;99786.88;;;6.75;92.36
23574;BME280;11965;53.640;10.050;2022-09-29T01:59:56;99798.75;;;6.76;93.53
23574;BME280;11965;53.640;10.050;2022-09-29T02:02:39;99793.41;;;6.74;92.38
23574;BME280;11965;53.640;10.050;2022-09-29T02:05:12;99797.22;;;6.73;93.63
23574;BME280;11965;53.640;10.050;2022-09-29T02:07:43;99799.53;;;6.70;93.69
23574;BME280;11965;53.640;10.050;2022-09-29T02:12:41;99801.22;;;6.71;93.06
23574;BME280;11965;53.640;10.050;2022-09-29T02:15:13;99799.72;;;6.68;92.85
23574;BME280;11965;53.640;10.050;2022-09-29T02:17:44;99794.22;;;6.68;93.27
23574;BME280;11965;53.640;10.050;2022-09-29T02:20:12;99797.34;;;6.65;92.29
23574;BME280;11965;53.640;10.050;2022-09-29T02:22:39;99793.75;;;6.64;93.18
23574;BME280;11965;53.640;10.050;2022-09-29T02:25:10;99798.59;;;6.62;93.12
23574;BME280;11965;53.640;10.050;2022-09-29T02:27:35;99796.34;;;6.51;94.28
23574;BME280;11965;53.640;10.050;2022-09-29T02:30:02;99808.66;;;6.55;93.75
23574;BME280;11965;53.640;10.050;2022-09-29T02:32:32;99806.97;;;6.54;92.31
23574;BME280;11965;53.640;10.050;2022-09-29T02:34:58;99802.44;;;6.47;93.53
23574;BME280;11965;53.640;10.050;2022-09-29T02:40:36;99800.16;;;6.50;93.97
23574;BME280;11965;53.640;10.050;2022-09-29T02:43:25;99793.59;;;6.51;93.12
23574;BME280;11965;53.640;10.050;2022-09-29T02:46:06;99805.69;;;6.50;93.44
23574;BME280;11965;53.640;10.050;2022-09-29T02:53:54;99798.44;;;6.49;93.26
23574;BME280;11965;53.640;10.050;2022-09-29T02:59:17;99805.59;;;6.44;93.00
23574;BME280;11965;53.640;10.050;2022-09-29T03:01:50;99802.81;;;6.44;92.18
23574;BME280;11965;53.640;10.050;2022-09-29T03:04:17;99809.78;;;6.39;92.77
23574;BME280;11965;53.640;10.050;2022-09-29T03:06:43;99804.63;;;6.36;93.18
23574;BME280;11965;53.640;10.050;2022-09-29T03:09:08;99802.56;;;6.38;92.62
23574;BME280;11965;53.640;10.050;2022-09-29T03:11:34;99804.47;;;6.38;92.15
23574;BME280;11965;53.640;10.050;2022-09-29T03:13:59;99804.56;;;6.30;93.06
23574;BME280;11965;53.640;10.050;2022-09-29T03:16:25;99799.25;;;6.28;92.99
23574;BME280;11965;53.640;10.050;2022-09-29T03:18:51;99805.25;;;6.32;93.05
23574;BME280;11965;53.640;10.050;2022-09-29T03:21:17;99799.13;;;6.36;91.41
23574;BME280;11965;53.640;10.050;2022-09-29T03:23:42;99803.50;;;6.31;92.35
23574;BME280;11965;53.640;10.050;2022-09-29T03:26:07;99805.53;;;6.22;93.04
23574;BME280;11965;53.640;10.050;2022-09-29T03:28:33;99803.84;;;6.21;93.98
23574;BME280;11965;53.640;10.050;2022-09-29T03:31:06;99814.72;;;6.29;94.20
23574;BME280;11965;53.640;10.050;2022-09-29T03:33:32;99802.38;;;6.25;93.28
23574;BME280;11965;53.640;10.050;2022-09-29T03:35:57;99810.63;;;6.25;92.79
23574;BME280;11965;53.640;10.050;2022-09-29T03:38:22;99804.47;;;6.23;93.40
23574;BME280;11965;53.640;10.050;2022-09-29T03:40:48;99803.22;;;6.26;92.68
23574;BME280;11965;53.640;10.050;2022-09-29T03:43:13;99797.44;;;6.20;93.17
23574;BME280;11965;53.640;10.050;2022-09-29T03:45:53;99793.78;;;6.13;93.26
23574;BME280;11965;53.640;10.050;2022-09-29T03:48:20;99806.66;;;6.28;93.18
23574;BME280;11965;53.640;10.050;2022-09-29T03:50:46;99793.34;;;6.31;92.75
23574;BME280;11965;53.640;10.050;2022-09-29T03:53:13;99803.72;;;6.29;92.47
23574;BME280;11965;53.640;10.050;2022-09-29T03:55:39;99803.72;;;6.29;93.36
23574;BME280;11965;53.640;10.050;2022-09-29T03:58:05;99800.47;;;6.26;93.37
23574;BME280;11965;53.640;10.050;2022-09-29T04:00:30;99802.38;;;6.25;93.14
23574;BME280;11965;53.640;10.050;2022-09-29T04:02:57;99811.69;;;6.24;93.17
23574;BME280;11965;53.640;10.050;2022-09-29T04:05:22;99805.34;;;6.24;93.63
23574;BME280;11965;53.640;10.050;2022-09-29T04:07:48;99810.28;;;6.13;94.48
23574;BME280;11965;53.640;10.050;2022-09-29T04:10:13;99803.16;;;6.19;93.02
23574;BME280;11965;53.640;10.050;2022-09-29T04:12:39;99806.38;;;6.23;93.37
23574;BME280;11965;53.640;10.050;2022-09-29T04:15:05;99816.06;;;6.18;93.54
23574;BME280;11965;53.640;10.050;2022-09-29T04:17:30;99813.97;;;6.20;93.95
23574;BME280;11965;53.640;10.050;2022-09-29T04:19:56;99821.94;;;6.30;91.74
23574;BME280;11965;53.640;10.050;2022-09-29T04:22:21;99837.13;;;6.26;93.93
23574;BME280;11965;53.640;10.050;2022-09-29T04:24:47;99829.91;;;6.25;93.43
23574;BME280;11965;53.640;10.050;2022-09-29T04:27:13;99834.09;;;6.21;94.20
23574;BME280;11965;53.640;10.050;2022-09-29T04:29:38;99836.25;;;6.26;92.95
23574;BME280;11965;53.640;10.050;2022-09-29T04:32:04;99839.38;;;6.23;93.13
23574;BME280;11965;53.640;10.050;2022-09-29T04:34:31;99837.13;;;6.26;93.39
23574;BME280;11965;53.640;10.050;2022-09-29T04:36:57;99847.75;;;6.29;93.53
23574;BME280;11965;53.640;10.050;2022-09-29T04:39:22;99837.66;;;6.36;92.77
23574;BME280;11965;53.640;10.050;2022-09-29T04:41:47;99842.72;;;6.33;93.04
23574;BME280;11965;53.640;10.050;2022-09-29T04:44:13;99846.41;;;6.40;92.79
23574;BME280;11965;53.640;10.050;2022-09-29T04:46:38;99856.47;;;6.33;93.75
23574;BME280;11965;53.640;10.050;2022-09-29T04:49:03;99854.94;;;6.30;93.71
23574;BME280;11965;53.640;10.050;2022-09-29T04:51:29;99848.94;;;6.41;91.61
23574;BME280;11965;53.640;10.050;2022-09-29T04:53:56;99857.81;;;6.37;92.84
23574;BME280;11965;53.640;10.050;2022-09-29T04:56:22;99854.56;;;6.48;91.53
23574;BME280;11965;53.640;10.050;2022-09-29T04:58:47;99858.84;;;6.36;92.20
23574;BME280;11965;53.640;10.050;2022-09-29T05:01:13;99856.66;;;6.31;93.48
23574;BME280;11965;53.640;10.050;2022-09-29T05:03:38;99853.34;;;6.21;94.38
23574;BME280;11965;53.640;10.050;2022-09-29T05:06:04;99856.66;;;6.31;93.41
23574;BME280;11965;53.640;10.050;2022-09-29T05:08:30;99854.78;;;6.32;93.38
23574;BME280;11965;53.640;10.050;2022-09-29T05:10:55;99858.38;;;6.32;94.31
23574;BME280;11965;53.640;10.050;2022-09-29T05:13:21;99848.66;;;6.36;94.32
23574;BME280;11965;53.640;10.050;2022-09-29T05:15:46;99851.06;;;6.39;93.82
23574;BME280;11965;53.640;10.050;2022-09-29T05:18:11;99849.44;;;6.45;93.41
23574;BME280;11965;53.640;10.050;2022-09-29T05:20:37;99846.03;;;6.43;92.24
23574;BME280;11965;53.640;10.050;2022-09-29T05:23:02;99846.69;;;6.45;93.22
23574;BME280;11965;53.640;10.050;2022-09-29T05:25:35;99853.22;;;6.44;93.25
23574;BME280;11965;53.640;10.050;2022-09-29T05:28:00;99849.63;;;6.44;93.70
23574;BME280;11965;53.640;10.050;2022-09-29T05:30:26;99854.94;;;6.45;94.21
23574;BME280;11965;53.640;10.050;2022-09-29T05:32:51;99859.09;;;6.56;93.20
23574;BME280;11965;53.640;10.050;2022-09-29T05:35:16;99847.81;;;6.51;95.13
23574;BME280;11965;53.640;10.050;2022-09-29T05:37:42;99854.50;;;6.63;93.57
23574;BME280;11965;53.640;10.050;2022-09-29T05:40:07;99852.75;;;6.77;93.09
23574;BME280;11965;53.640;10.050;2022-09-29T05:42:34;99855.44;;;6.70;94.09
23574;BME280;11965;53.640;10.050;2022-09-29T05:44:59;99855.78;;;6.82;94.08
23574;BME280;11965;53.640;10.050;2022-09-29T05:47:25;99858.34;;;6.83;94.49
23574;BME280;11965;53.640;10.050;2022-09-29T05:49:51;99857.69;;;6.81;94.97
23574;BME280;11965;53.640;10.050;2022-09-29T05:52:16;99858.41;;;6.90;94.58
23574;BME280;11965;53.640;10.050;2022-09-29T05:54:42;99861.44;;;6.95;94.76
23574;BME280;11965;53.640;10.050;2022-09-29T05:57:07;99865.19;;;7.09;94.21
23574;BME280;11965;53.640;10.050;2022-09-29T05:59:32;99860.81;;;7.15;94.47
23574;BME280;11965;53.640;10.050;2022-09-29T06:01:58;99862.06;;;7.34;92.63
23574;BME280;11965;53.640;10.050;2022-09-29T06:04:23;99857.31;;;7.27;94.13
23574;BME280;11965;53.640;10.050;2022-09-29T06:06:48;99865.41;;;7.29;94.40
23574;BME280;11965;53.640;10.050;2022-09-29T06:09:14;99859.34;;;7.40;94.28
23574;BME280;11965;53.640;10.050;2022-09-29T06:11:39;99855.16;;;7.44;94.80
23574;BME280;11965;53.640;10.050;2022-09-29T06:14:05;99860.97;;;7.56;95.10
23574;BME280;11965;53.640;10.050;2022-09-29T06:16:31;99857.91;;;7.72;94.80
23574;BME280;11965;53.640;10.050;2022-09-29T06:18:58;99863.28;;;7.81;94.60
23574;BME280;11965;53.640;10.050;2022-09-29T06:21:26;99858.19;;;8.12;92.83
23574;BME280;11965;53.640;10.050;2022-09-29T06:23:56;99853.09;;;8.16;92.63
23574;BME280;11965;53.640;10.050;2022-09-29T06:26:23;99867.16;;;8.21;92.73
23574;BME280;11965;53.640;10.050;2022-09-29T06:28:48;99861.88;;;8.26;93.37
23574;BME280;11965;53.640;10.050;2022-09-29T06:31:16;99874.66;;;8.34;93.42
23574;BME280;11965;53.640;10.050;2022-09-29T06:33:42;99882.28;;;8.25;94.04
23574;BME280;11965;53.640;10.050;2022-09-29T06:36:19;99876.81;;;8.73;91.84
23574;BME280;11965;53.640;10.050;2022-09-29T06:39:05;99872.91;;;8.54;93.27
23574;BME280;11965;53.640;10.050;2022-09-29T06:41:31;99877.09;;;8.44;95.02
23574;BME280;11965;53.640;10.050;2022-09-29T06:43:56;99872.78;;;8.76;93.67
23574;BME280;11965;53.640;10.050;2022-09-29T06:46:22;99873.69;;;8.96;92.06
23574;BME280;11965;53.640;10.050;2022-09-29T06:48:47;99876.66;;;8.95;92.68
23574;BME280;11965;53.640;10.050;2022-09-29T06:51:13;99886.69;;;9.16;92.12
23574;BME280;11965;53.640;10.050;2022-09-29T06:53:41;99875.03;;;9.27;90.99
23574;BME280;11965;53.640;10.050;2022-09-29T06:56:06;99875.00;;;9.14;93.39
23574;BME280;11965;53.640;10.050;2022-09-29T06:58:33;99872.03;;;9.28;92.29
23574;BME280;11965;53.640;10.050;2022-09-29T07:00:59;99868.84;;;9.32;92.98
23574;BME280;11965;53.640;10.050;2022-09-29T07:03:27;99875.47;;;9.31;93.52
23574;BME280;11965;53.640;10.050;2022-09-29T07:05:56;99871.00;;;9.36;93.74
23574;BME280;11965;53.640;10.050;2022-09-29T07:08:21;99885.03;;;9.48;93.80
23574;BME280;11965;53.640;10.050;2022-09-29T07:10:47;99884.00;;;9.56;94.43
23574;BME280;11965;53.640;10.050;2022-09-29T07:13:12;99892.94;;;9.78;94.24
23574;BME280;11965;53.640;10.050;2022-09-29T07:15:38;99886.78;;;9.89;94.22
23574;BME280;11965;53.640;10.050;2022-09-29T07:18:04;99881.00;;;10.04;93.67
23574;BME280;11965;53.640;10.050;2022-09-29T07:20:30;99885.22;;;10.20;93.65
23574;BME280;11965;53.640;10.050;2022-09-29T07:22:56;99889.50;;;10.22;94.06
23574;BME280;11965;53.640;10.050;2022-09-29T07:25:22;99885.88;;;10.35;93.57
23574;BME280;11965;53.640;10.050;2022-09-29T07:27:49;99891.38;;;10.48;93.74
23574;BME280;11965;53.640;10.050;2022-09-29T07:30:16;99885.13;;;10.66;91.97
23574;BME280;11965;53.640;10.050;2022-09-29T07:32:42;99885.06;;;10.79;90.60
23574;BME280;11965;53.640;10.050;2022-09-29T07:35:08;99893.44;;;10.73;92.30
23574;BME280;11965;53.640;10.050;2022-09-29T07:37:34;99891.41;;;10.93;91.52
23574;BME280;11965;53.640;10.050;2022-09-29T07:39:59;99892.53;;;10.86;91.86
23574;BME280;11965;53.640;10.050;2022-09-29T07:42:27;99894.88;;;10.82;92.76
23574;BME280;11965;53.640;10.050;2022-09-29T07:44:54;99890.94;;;11.03;91.71
23574;BME280;11965;53.640;10.050;2022-09-29T07:47:19;99890.91;;;11.10;91.09
23574;BME280;11965;53.640;10.050;2022-09-29T07:49:45;99894.72;;;11.15;91.40
23574;BME280;11965;53.640;10.050;2022-09-29T07:52:12;99896.09;;;10.99;92.43
23574;BME280;11965;53.640;10.050;2022-09-29T07:54:38;99903.19;;;11.27;90.63
23574;BME280;11965;53.640;10.050;2022-09-29T07:57:03;99907.81;;;11.40;90.02
23574;BME280;11965;53.640;10.050;2022-09-29T07:59:29;99900.78;;;11.37;89.98
23574;BME280;11965;53.640;10.050;2022-09-29T08:01:55;99895.44;;;11.36;89.34
23574;BME280;11965;53.640;10.050;2022-09-29T08:04:21;99904.34;;;11.44;88.40
23574;BME280;11965;53.640;10.050;2022-09-29T08:06:46;99905.50;;;11.62;88.20
23574;BME280;11965;53.640;10.050;2022-09-29T08:09:12;99897.56;;;11.65;87.45
23574;BME280;11965;53.640;10.050;2022-09-29T08:11:39;99915.44;;;11.76;87.75
23574;BME280;11965;53.640;10.050;2022-09-29T08:14:05;99912.91;;;11.75;86.81
23574;BME280;11965;53.640;10.050;2022-09-29T08:16:31;99914.56;;;11.82;87.34
23574;BME280;11965;53.640;10.050;2022-09-29T08:18:58;99922.63;;;11.90;86.91
23574;BME280;11965;53.640;10.050;2022-09-29T08:21:24;99917.59;;;11.74;88.22
23574;BME280;11965;53.640;10.050;2022-09-29T08:23:49;99913.91;;;11.80;86.94
23574;BME280;11965;53.640;10.050;2022-09-29T08:26:17;99922.63;;;11.90;86.88
23574;BME280;11965;53.640;10.050;2022-09-29T08:28:43;99925.72;;;12.01;85.70
23574;BME280;11965;53.640;10.050;2022-09-29T08:31:14;99932.19;;;12.20;85.38
23574;BME280;11965;53.640;10.050;2022-09-29T08:33:40;99933.91;;;11.96;84.88
23574;BME280;11965;53.640;10.050;2022-09-29T08:36:07;99931.56;;;11.92;84.57
23574;BME280;11965;53.640;10.050;2022-09-29T08:38:43;99931.69;;;12.04;85.20
23574;BME280;11965;53.640;10.050;2022-09-29T08:44:09;99941.63;;;11.93;86.02
23574;BME280;11965;53.640;10.050;2022-09-29T08:46:41;99939.50;;;12.14;85.54
23574;BME280;11965;53.640;10.050;2022-09-29T08:49:19;99949.44;;;12.28;84.65
23574;BME280;11965;53.640;10.050;2022-09-29T08:51:50;99947.22;;;12.37;84.64
23574;BME280;11965;53.640;10.050;2022-09-29T08:54:33;99943.88;;;12.28;84.58
23574;BME280;11965;53.640;10.050;2022-09-29T08:56:59;99953.06;;;12.29;83.94
23574;BME280;11965;53.640;10.050;2022-09-29T08:59:27;99948.97;;;12.31;83.11
23574;BME280;11965;53.640;10.050;2022-09-29T09:10:17;99954.78;;;12.48;81.33
23574;BME280;11965;53.640;10.050;2022-09-29T09:21:08;99963.25;;;12.60;81.49
23574;BME280;11965;53.640;10.050;2022-09-29T09:26:05;99957.97;;;12.70;81.39
23574;BME280;11965;53.640;10.050;2022-09-29T09:28:36;99962.59;;;12.58;81.56
23574;BME280;11965;53.640;10.050;2022-09-29T09:31:08;99972.59;;;12.66;80.66
23574;BME280;11965;53.640;10.050;2022-09-29T09:33:42;99968.63;;;12.73;79.98
23574;BME280;11965;53.640;10.050;2022-09-29T09:36:13;99962.31;;;12.85;81.17
23574;BME280;11965;53.640;10.050;2022-09-29T09:41:21;99970.41;;;12.49;82.17
23574;BME280;11965;53.640;10.050;2022-09-29T09:43:51;99973.81;;;12.70;81.79
23574;BME280;11965;53.640;10.050;2022-09-29T09:46:37;99968.75;;;13.03;78.87
23574;BME280;11965;53.640;10.050;2022-09-29T09:49:13;99969.03;;;12.95;80.67
23574;BME280;11965;53.640;10.050;2022-09-29T09:54:32;99983.47;;;13.22;77.06
23574;BME280;11965;53.640;10.050;2022-09-29T10:02:48;99970.03;;;13.38;75.98
23574;BME280;11965;53.640;10.050;2022-09-29T10:05:16;99966.00;;;13.52;77.34
23574;BME280;11965;53.640;10.050;2022-09-29T10:07:43;99978.22;;;13.93;78.86
23574;BME280;11965;53.640;10.050;2022-09-29T10:10:20;99977.41;;;14.04;78.65
23574;BME280;11965;53.640;10.050;2022-09-29T10:12:54;99974.00;;;14.02;73.58
23574;BME280;11965;53.640;10.050;2022-09-29T10:15:28;99983.88;;;14.17;73.96
23574;BME280;11965;53.640;10.050;2022-09-29T10:18:03;99982.41;;;14.14;74.51
23574;BME280;11965;53.640;10.050;2022-09-29T10:20:35;99978.91;;;14.30;71.85
23574;BME280;11965;53.640;10.050;2022-09-29T10:26:01;99982.91;;;14.23;73.54
23574;BME280;11965;53.640;10.050;2022-09-29T10:28:37;99981.34;;;13.85;72.94
23574;BME280;11965;53.640;10.050;2022-09-29T10:31:21;99988.53;;;13.92;74.10
23574;BME280;11965;53.640;10.050;2022-09-29T10:34:16;99989.78;;;14.08;72.78
23574;BME280;11965;53.640;10.050;2022-09-29T10:37:05;99992.84;;;13.77;73.24
23574;BME280;11965;53.640;10.050;2022-09-29T10:39:33;99998.56;;;13.52;75.71
23574;BME280;11965;53.640;10.050;2022-09-29T10:41:58;99999.31;;;13.89;75.34
23574;BME280;11965;53.640;10.050;2022-09-29T10:44:32;100003.16;;;13.88;74.94
23574;BME280;11965;53.640;10.050;2022-09-29T10:46:58;99996.28;;;13.90;74.47
23574;BME280;11965;53.640;10.050;2022-09-29T10:49:27;99995.28;;;13.85;73.23
23574;BME280;11965;53.640;10.050;2022-09-29T10:54:26;100014.63;;;13.80;74.54
23574;BME280;11965;53.640;10.050;2022-09-29T10:56:54;100008.03;;;13.62;77.98
23574;BME280;11965;53.640;10.050;2022-09-29T10:59:21;99998.81;;;13.62;73.51
23574;BME280;11965;53.640;10.050;2022-09-29T11:01:50;100013.75;;;13.67;75.40
23574;BME280;11965;53.640;10.050;2022-09-29T11:04:19;100016.31;;;13.81;76.80
23574;BME280;11965;53.640;10.050;2022-09-29T11:06:46;100013.75;;;13.67;76.39
23574;BME280;11965;53.640;10.050;2022-09-29T11:11:52;100016.66;;;13.73;75.41
23574;BME280;11965;53.640;10.050;2022-09-29T11:17:24;100030.22;;;13.69;75.66
23574;BME280;11965;53.640;10.050;2022-09-29T11:19:51;100015.44;;;13.68;75.04
23574;BME280;11965;53.640;10.050;2022-09-29T11:23:09;100036.59;;;13.88;74.56
23574;BME280;11965;53.640;10.050;2022-09-29T11:30:50;100037.34;;;13.95;75.74
23574;BME280;11965;53.640;10.050;2022-09-29T11:36:11;100040.28;;;14.00;76.55
23574;BME280;11965;53.640;10.050;2022-09-29T11:43:53;100048.06;;;13.80;73.38
23574;BME280;11965;53.640;10.050;2022-09-29T11:52:22;100050.66;;;13.93;74.66
23574;BME280;11965;53.640;10.050;2022-09-29T12:00:49;100053.78;;;13.85;74.57
23574;BME280;11965;53.640;10.050;2022-09-29T12:03:26;100065.28;;;13.88;73.23
23574;BME280;11965;53.640;10.050;2022-09-29T12:06:04;100056.22;;;13.93;75.88
23574;BME280;11965;53.640;10.050;2022-09-29T12:14:20;100060.28;;;14.09;73.67
23574;BME280;11965;53.640;10.050;2022-09-29T12:16:59;100065.88;;;14.09;73.34
23574;BME280;11965;53.640;10.050;2022-09-29T12:19:27;100058.69;;;14.01;73.86
23574;BME280;11965;53.640;10.050;2022-09-29T12:21:57;100056.03;;;14.06;73.55
23574;BME280;11965;53.640;10.050;2022-09-29T12:24:43;100050.09;;;14.03;74.58
23574;BME280;11965;53.640;10.050;2022-09-29T12:27:18;100054.34;;;14.05;74.59
23574;BME280;11965;53.640;10.050;2022-09-29T12:30:08;100063.91;;;14.09;76.56
23574;BME280;11965;53.640;10.050;2022-09-29T12:32:43;100058.00;;;14.18;74.92
23574;BME280;11965;53.640;10.050;2022-09-29T12:35:21;100065.38;;;14.12;73.28
23574;BME280;11965;53.640;10.050;2022-09-29T12:38:14;100063.84;;;14.28;73.90
23574;BME280;11965;53.640;10.050;2022-09-29T12:41:04;100062.84;;;14.10;73.00
23574;BME280;11965;53.640;10.050;2022-09-29T12:43:49;100067.66;;;14.03;74.46
23574;BME280;11965;53.640;10.050;2022-09-29T12:46:37;100060.47;;;13.96;72.22
23574;BME280;11965;53.640;10.050;2022-09-29T12:49:24;100062.09;;;14.03;71.50
23574;BME280;11965;53.640;10.050;2022-09-29T12:51:55;100067.28;;;14.00;73.89
23574;BME280;11965;53.640;10.050;2022-09-29T12:54:26;100066.72;;;13.79;73.18
23574;BME280;11965;53.640;10.050;2022-09-29T12:57:13;100069.25;;;13.81;74.48
23574;BME280;11965;53.640;10.050;2022-09-29T13:05:19;100070.59;;;14.08;73.21
23574;BME280;11965;53.640;10.050;2022-09-29T13:13:18;100081.34;;;14.05;75.05
23574;BME280;11965;53.640;10.050;2022-09-29T13:16:02;100088.19;;;13.90;73.06
23574;BME280;11965;53.640;10.050;2022-09-29T13:19:09;100083.88;;;13.95;72.00
23574;BME280;11965;53.640;10.050;2022-09-29T13:27:14;100088.38;;;13.40;77.71
23574;BME280;11965;53.640;10.050;2022-09-29T13:29:46;100092.22;;;13.21;82.26
23574;BME280;11965;53.640;10.050;2022-09-29T13:32:13;100088.22;;;13.17;80.55
23574;BME280;11965;53.640;10.050;2022-09-29T13:34:46;100075.47;;;12.84;85.06
23574;BME280;11965;53.640;10.050;2022-09-29T13:37:17;100098.63;;;13.03;86.29
23574;BME280;11965;53.640;10.050;2022-09-29T13:40:04;100094.13;;;13.02;84.86
23574;BME280;11965;53.640;10.050;2022-09-29T13:42:45;100096.56;;;12.92;89.54
23574;BME280;11965;53.640;10.050;2022-09-29T13:48:01;100097.22;;;12.94;88.06
23574;BME280;11965;53.640;10.050;2022-09-29T13:50:41;100095.22;;;13.01;88.11
23574;BME280;11965;53.640;10.050;2022-09-29T13:58:36;100095.06;;;12.96;92.63
23574;BME280;11965;53.640;10.050;2022-09-29T14:01:05;100090.34;;;12.96;92.98
23574;BME280;11965;53.640;10.050;2022-09-29T14:03:42;100092.91;;;12.98;93.39
23574;BME280;11965;53.640;10.050;2022-09-29T14:06:16;100093.88;;;12.85;92.85
23574;BME280;11965;53.640;10.050;2022-09-29T14:11:37;100094.13;;;13.02;92.24
23574;BME280;11965;53.640;10.050;2022-09-29T14:14:38;100093.91;;;13.03;92.73
23574;BME280;11965;53.640;10.050;2022-09-29T14:17:08;100102.63;;;13.07;93.53
23574;BME280;11965;53.640;10.050;2022-09-29T14:30:12;100095.84;;;13.03;94.60
23574;BME280;11965;53.640;10.050;2022-09-29T14:35:18;100095.31;;;13.13;95.57
23574;BME280;11965;53.640;10.050;2022-09-29T14:37:52;100096.94;;;13.20;95.84
23574;BME280;11965;53.640;10.050;2022-09-29T14:40:21;100087.72;;;13.01;97.90
23574;BME280;11965;53.640;10.050;2022-09-29T14:43:12;100102.88;;;13.24;95.82
23574;BME280;11965;53.640;10.050;2022-09-29T14:52:03;100103.13;;;13.22;96.26
23574;BME280;11965;53.640;10.050;2022-09-29T14:54:36;100107.69;;;13.17;97.99
23574;BME280;11965;53.640;10.050;2022-09-29T14:57:22;100099.41;;;13.35;95.46
23574;BME280;11965;53.640;10.050;2022-09-29T15:00:00;100109.97;;;13.45;95.36
23574;BME280;11965;53.640;10.050;2022-09-29T15:02:28;100112.31;;;13.23;97.19
23574;BME280;11965;53.640;10.050;2022-09-29T15:04:55;100105.06;;;13.22;97.44
23574;BME280;11965;53.640;10.050;2022-09-29T15:07:23;100109.13;;;13.26;97.96
23574;BME280;11965;53.640;10.050;2022-09-29T15:09:57;100118.09;;;13.28;97.63
23574;BME280;11965;53.640;10.050;2022-09-29T15:12:28;100117.25;;;13.28;98.15
23574;BME280;11965;53.640;10.050;2022-09-29T15:14:56;100120.63;;;13.30;98.22
23574;BME280;11965;53.640;10.050;2022-09-29T15:25:36;100126.03;;;13.24;97.42
23574;BME280;11965;53.640;10.050;2022-09-29T15:30:38;100134.25;;;13.13;97.88
23574;BME280;11965;53.640;10.050;2022-09-29T15:33:23;100128.59;;;13.01;100.00
23574;BME280;11965;53.640;10.050;2022-09-29T15:40:57;100134.84;;;12.96;100.00
23574;BME280;11965;53.640;10.050;2022-09-29T15:43:28;100131.22;;;12.96;100.00
23574;BME280;11965;53.640;10.050;2022-09-29T15:45:57;100135.59;;;12.85;100.00
23574;BME280;11965;53.640;10.050;2022-09-29T15:48:27;100140.63;;;12.95;100.00
23574;BME280;11965;53.640;10.050;2022-09-29T15:50:53;100143.09;;;12.85;100.00
23574;BME280;11965;53.640;10.050;2022-09-29T15:53:20;100139.50;;;12.77;100.00
23574;BME280;11965;53.640;10.050;2022-09-29T15:55:48;100153.28;;;12.91;100.00